sensor_id;sensor_type;location;lat;lon;timestamp;pressure;altitude;pressure_sealevel;temperature;humidity
64644;BME280;51056;50.330;7.914;2023-01-08T00:02:01;99811.91;;;9.85;81.06
64644;BME280;51056;50.330;7.914;2023-01-08T00:05:05;99808.28;;;9.88;81.30
64644;BME280;51056;50.330;7.914;2023-01-08T00:08:09;99807.44;;;9.87;81.12
64644;BME280;51056;50.330;7.914;2023-01-08T00:11:13;99804.09;;;9.99;80.58
64644;BME280;51056;50.330;7.914;2023-01-08T00:14:16;99810.41;;;9.95;80.55
64644;BME280;51056;50.330;7.914;2023-01-08T00:17:19;99802.09;;;9.89;80.95
64644;BME280;51056;50.330;7.914;2023-01-08T00:20:23;99802.69;;;9.94;80.68
64644;BME280;51056;50.330;7.914;2023-01-08T00:23:26;99790.44;;;9.94;81.06
64644;BME280;51056;50.330;7.914;2023-01-08T00:26:30;99780.84;;;9.95;80.81
64644;BME280;51056;50.330;7.914;2023-01-08T00:29:34;99781.31;;;10.01;80.66
64644;BME280;51056;50.330;7.914;2023-01-08T00:32:37;99776.00;;;10.03;80.75
64644;BME280;51056;50.330;7.914;2023-01-08T00:35:41;99778.78;;;10.00;81.01
64644;BME280;51056;50.330;7.914;2023-01-08T00:38:45;99758.25;;;10.08;80.64
64644;BME280;51056;50.330;7.914;2023-01-08T00:41:48;99752.94;;;10.10;80.62
64644;BME280;51056;50.330;7.914;2023-01-08T00:44:51;99759.84;;;10.11;80.81
64644;BME280;51056;50.330;7.914;2023-01-08T00:47:55;99763.19;;;10.13;80.43
64644;BME280;51056;50.330;7.914;2023-01-08T00:51:00;99764.16;;;10.12;80.44
64644;BME280;51056;50.330;7.914;2023-01-08T00:54:04;99767.34;;;10.02;81.07
64644;BME280;51056;50.330;7.914;2023-01-08T00:57:07;99753.31;;;10.04;80.99
64644;BME280;51056;50.330;7.914;2023-01-08T01:00:12;99752.19;;;10.08;80.89
64644;BME280;51056;50.330;7.914;2023-01-08T01:03:16;99743.97;;;10.14;80.45
64644;BME280;51056;50.330;7.914;2023-01-08T01:06:19;99744.41;;;10.20;80.20
64644;BME280;51056;50.330;7.914;2023-01-08T01:09:22;99753.50;;;10.15;80.27
64644;BME280;51056;50.330;7.914;2023-01-08T01:12:25;99757.78;;;10.16;80.20
64644;BME280;51056;50.330;7.914;2023-01-08T01:15:29;99763.66;;;10.19;80.13
64644;BME280;51056;50.330;7.914;2023-01-08T01:18:32;99756.31;;;10.26;79.78
64644;BME280;51056;50.330;7.914;2023-01-08T01:21:35;99749.28;;;10.27;79.75
64644;BME280;51056;50.330;7.914;2023-01-08T01:24:39;99763.88;;;10.31;79.39
64644;BME280;51056;50.330;7.914;2023-01-08T01:27:42;99763.44;;;10.37;79.13
64644;BME280;51056;50.330;7.914;2023-01-08T01:30:51;99753.50;;;10.29;79.76
64644;BME280;51056;50.330;7.914;2023-01-08T01:33:54;99762.63;;;10.36;79.30
64644;BME280;51056;50.330;7.914;2023-01-08T01:36:57;99760.19;;;10.33;79.47
64644;BME280;51056;50.330;7.914;2023-01-08T01:40:01;99764.59;;;10.33;79.43
64644;BME280;51056;50.330;7.914;2023-01-08T01:43:04;99750.00;;;10.43;79.46
64644;BME280;51056;50.330;7.914;2023-01-08T01:46:34;99755.72;;;10.35;79.63
64644;BME280;51056;50.330;7.914;2023-01-08T01:49:31;99762.41;;;10.39;79.46
64644;BME280;51056;50.330;7.914;2023-01-08T01:53:06;99748.91;;;10.33;79.86
64644;BME280;51056;50.330;7.914;2023-01-08T01:56:10;99761.13;;;10.46;79.25
64644;BME280;51056;50.330;7.914;2023-01-08T01:59:15;99764.66;;;10.45;79.30
64644;BME280;51056;50.330;7.914;2023-01-08T02:02:18;99761.84;;;10.48;79.16
64644;BME280;51056;50.330;7.914;2023-01-08T02:05:21;99754.00;;;10.48;79.13
64644;BME280;51056;50.330;7.914;2023-01-08T02:08:55;99761.75;;;10.50;79.12
64644;BME280;51056;50.330;7.914;2023-01-08T02:12:21;99764.66;;;10.45;79.13
64644;BME280;51056;50.330;7.914;2023-01-08T02:15:33;99760.16;;;10.47;79.05
64644;BME280;51056;50.330;7.914;2023-01-08T02:18:47;99750.66;;;10.46;78.95
64644;BME280;51056;50.330;7.914;2023-01-08T05:15:59;99610.69;;;9.18;96.79
64644;BME280;51056;50.330;7.914;2023-01-08T05:19:03;99598.28;;;9.22;96.52
64644;BME280;51056;50.330;7.914;2023-01-08T05:22:26;99599.59;;;9.29;95.99
64644;BME280;51056;50.330;7.914;2023-01-08T05:26:00;99605.16;;;9.37;95.21
64644;BME280;51056;50.330;7.914;2023-01-08T05:29:04;99602.03;;;9.18;95.59
64644;BME280;51056;50.330;7.914;2023-01-08T05:32:14;99602.66;;;9.21;95.51
64644;BME280;51056;50.330;7.914;2023-01-08T05:35:18;99609.13;;;9.16;95.87
64644;BME280;51056;50.330;7.914;2023-01-08T05:38:21;99614.03;;;9.20;95.49
64644;BME280;51056;50.330;7.914;2023-01-08T05:41:24;99613.94;;;9.22;95.45
64644;BME280;51056;50.330;7.914;2023-01-08T05:44:28;99604.81;;;9.29;94.88
64644;BME280;51056;50.330;7.914;2023-01-08T05:47:31;99609.28;;;9.27;94.73
64644;BME280;51056;50.330;7.914;2023-01-08T05:50:35;99604.63;;;9.18;95.36
64644;BME280;51056;50.330;7.914;2023-01-08T05:53:38;99594.56;;;9.26;95.14
64644;BME280;51056;50.330;7.914;2023-01-08T05:56:41;99593.34;;;9.31;94.27
64644;BME280;51056;50.330;7.914;2023-01-08T05:59:46;99589.34;;;9.26;94.32
64644;BME280;51056;50.330;7.914;2023-01-08T06:02:49;99589.16;;;9.15;95.34
64644;BME280;51056;50.330;7.914;2023-01-08T06:05:52;99595.50;;;9.11;95.48
64644;BME280;51056;50.330;7.914;2023-01-08T06:08:55;99595.88;;;9.04;96.37
64644;BME280;51056;50.330;7.914;2023-01-08T06:11:59;99598.00;;;9.12;95.92
64644;BME280;51056;50.330;7.914;2023-01-08T06:15:04;99590.56;;;9.20;95.17
64644;BME280;51056;50.330;7.914;2023-01-08T06:18:08;99588.25;;;9.16;95.30
64644;BME280;51056;50.330;7.914;2023-01-08T06:21:12;99582.63;;;9.22;94.60
64644;BME280;51056;50.330;7.914;2023-01-08T06:24:16;99581.00;;;9.06;95.93
64644;BME280;51056;50.330;7.914;2023-01-08T06:27:20;99578.91;;;8.83;97.22
64644;BME280;51056;50.330;7.914;2023-01-08T06:30:23;99584.34;;;8.94;97.14
64644;BME280;51056;50.330;7.914;2023-01-08T06:33:27;99573.16;;;9.06;96.34
64644;BME280;51056;50.330;7.914;2023-01-08T06:36:30;99575.28;;;9.14;95.54
64644;BME280;51056;50.330;7.914;2023-01-08T06:39:34;99588.44;;;9.13;95.18
64644;BME280;51056;50.330;7.914;2023-01-08T06:42:37;99593.66;;;9.13;95.23
64644;BME280;51056;50.330;7.914;2023-01-08T06:45:41;99597.94;;;9.14;95.10
64644;BME280;51056;50.330;7.914;2023-01-08T06:48:45;99614.53;;;9.13;95.04
64644;BME280;51056;50.330;7.914;2023-01-08T06:51:49;99620.28;;;9.03;95.90
64644;BME280;51056;50.330;7.914;2023-01-08T06:54:52;99616.06;;;9.15;95.42
64644;BME280;51056;50.330;7.914;2023-01-08T06:57:56;99620.38;;;9.16;94.88
64644;BME280;51056;50.330;7.914;2023-01-08T07:01:00;99606.78;;;9.11;95.21
64644;BME280;51056;50.330;7.914;2023-01-08T07:04:05;99616.25;;;9.12;94.96
64644;BME280;51056;50.330;7.914;2023-01-08T07:07:11;99620.09;;;9.06;95.70
64644;BME280;51056;50.330;7.914;2023-01-08T07:10:15;99619.75;;;9.13;95.16
64644;BME280;51056;50.330;7.914;2023-01-08T07:13:18;99626.34;;;9.04;95.56
64644;BME280;51056;50.330;7.914;2023-01-08T07:16:22;99608.53;;;9.11;95.07
64644;BME280;51056;50.330;7.914;2023-01-08T07:19:25;99616.56;;;9.07;95.32
64644;BME280;51056;50.330;7.914;2023-01-08T07:22:28;99610.88;;;9.01;95.61
64644;BME280;51056;50.330;7.914;2023-01-08T07:25:31;99615.63;;;8.94;96.67
64644;BME280;51056;50.330;7.914;2023-01-08T07:28:34;99619.44;;;9.03;95.86
64644;BME280;51056;50.330;7.914;2023-01-08T07:31:38;99612.28;;;9.06;95.35
64644;BME280;51056;50.330;7.914;2023-01-08T07:34:41;99613.38;;;9.02;95.79
64644;BME280;51056;50.330;7.914;2023-01-08T07:37:44;99611.53;;;9.04;95.55
64644;BME280;51056;50.330;7.914;2023-01-08T07:41:16;99607.22;;;8.89;96.05
64644;BME280;51056;50.330;7.914;2023-01-08T07:45:04;99614.50;;;8.98;95.82
64644;BME280;51056;50.330;7.914;2023-01-08T07:48:08;99617.75;;;9.02;95.65
64644;BME280;51056;50.330;7.914;2023-01-08T07:51:18;99638.63;;;8.88;96.50
64644;BME280;51056;50.330;7.914;2023-01-08T07:54:21;99642.97;;;8.73;97.74
64644;BME280;51056;50.330;7.914;2023-01-08T07:57:28;99627.13;;;8.76;97.92
64644;BME280;51056;50.330;7.914;2023-01-08T08:00:33;99620.09;;;8.92;96.82
64644;BME280;51056;50.330;7.914;2023-01-08T08:03:37;99616.28;;;8.98;96.25
64644;BME280;51056;50.330;7.914;2023-01-08T08:06:40;99616.94;;;9.01;95.56
64644;BME280;51056;50.330;7.914;2023-01-08T08:09:43;99620.44;;;8.86;96.31
64644;BME280;51056;50.330;7.914;2023-01-08T08:12:47;99614.50;;;8.84;96.69
64644;BME280;51056;50.330;7.914;2023-01-08T08:15:50;99608.72;;;8.93;96.38
64644;BME280;51056;50.330;7.914;2023-01-08T08:18:53;99616.94;;;9.01;96.01
64644;BME280;51056;50.330;7.914;2023-01-08T08:21:56;99608.44;;;8.98;95.38
64644;BME280;51056;50.330;7.914;2023-01-08T08:25:00;99602.13;;;9.02;95.44
64644;BME280;51056;50.330;7.914;2023-01-08T08:28:03;99606.31;;;9.04;95.78
64644;BME280;51056;50.330;7.914;2023-01-08T08:31:32;99608.53;;;8.96;95.71
64644;BME280;51056;50.330;7.914;2023-01-08T08:34:36;99616.09;;;9.01;95.69
64644;BME280;51056;50.330;7.914;2023-01-08T08:37:39;99618.78;;;8.85;96.90
64644;BME280;51056;50.330;7.914;2023-01-08T08:40:43;99625.75;;;8.84;96.71
64644;BME280;51056;50.330;7.914;2023-01-08T08:43:46;99621.56;;;8.82;97.03
64644;BME280;51056;50.330;7.914;2023-01-08T08:46:51;99615.88;;;8.90;97.02
64644;BME280;51056;50.330;7.914;2023-01-08T08:49:58;99612.84;;;8.97;96.41
64644;BME280;51056;50.330;7.914;2023-01-08T08:53:04;99617.38;;;9.08;95.71
64644;BME280;51056;50.330;7.914;2023-01-08T08:56:07;99609.69;;;9.06;95.70
64644;BME280;51056;50.330;7.914;2023-01-08T08:59:11;99605.44;;;8.90;96.58
64644;BME280;51056;50.330;7.914;2023-01-08T09:02:15;99613.19;;;8.91;97.28
64644;BME280;51056;50.330;7.914;2023-01-08T09:05:18;99618.59;;;9.02;96.62
64644;BME280;51056;50.330;7.914;2023-01-08T09:08:21;99608.34;;;8.99;96.67
64644;BME280;51056;50.330;7.914;2023-01-08T09:11:24;99605.47;;;9.04;96.78
64644;BME280;51056;50.330;7.914;2023-01-08T09:14:28;99601.47;;;9.13;96.22
64644;BME280;51056;50.330;7.914;2023-01-08T09:17:35;99607.78;;;9.08;96.63
64644;BME280;51056;50.330;7.914;2023-01-08T09:20:41;99599.22;;;9.21;96.13
64644;BME280;51056;50.330;7.914;2023-01-08T09:23:47;99613.19;;;9.34;95.60
64644;BME280;51056;50.330;7.914;2023-01-08T09:26:52;99605.16;;;9.37;95.31
64644;BME280;51056;50.330;7.914;2023-01-08T09:29:56;99604.25;;;9.38;95.48
64644;BME280;51056;50.330;7.914;2023-01-08T09:33:02;99601.94;;;9.19;96.93
64644;BME280;51056;50.330;7.914;2023-01-08T09:36:10;99602.56;;;9.37;96.19
64644;BME280;51056;50.330;7.914;2023-01-08T09:39:13;99596.44;;;9.38;95.98
64644;BME280;51056;50.330;7.914;2023-01-08T09:42:22;99608.34;;;9.42;96.21
64644;BME280;51056;50.330;7.914;2023-01-08T09:45:29;99602.28;;;9.42;96.01
64644;BME280;51056;50.330;7.914;2023-01-08T09:48:37;99600.66;;;9.53;96.50
64644;BME280;51056;50.330;7.914;2023-01-08T09:51:41;99600.84;;;9.65;94.95
64644;BME280;51056;50.330;7.914;2023-01-08T09:54:45;99607.66;;;9.53;95.68
64644;BME280;51056;50.330;7.914;2023-01-08T09:57:48;99612.19;;;9.78;94.58
64644;BME280;51056;50.330;7.914;2023-01-08T10:00:51;99608.25;;;9.85;93.56
64644;BME280;51056;50.330;7.914;2023-01-08T10:03:58;99606.91;;;9.65;93.14
64644;BME280;51056;50.330;7.914;2023-01-08T10:07:20;99597.94;;;9.69;89.47
64644;BME280;51056;50.330;7.914;2023-01-08T10:10:27;99593.41;;;9.86;89.21
64644;BME280;51056;50.330;7.914;2023-01-08T10:13:34;99588.50;;;9.81;87.93
64644;BME280;51056;50.330;7.914;2023-01-08T10:16:41;99588.38;;;10.10;91.53
64644;BME280;51056;50.330;7.914;2023-01-08T10:19:46;99587.59;;;10.22;91.26
64644;BME280;51056;50.330;7.914;2023-01-08T10:22:50;99588.50;;;10.21;92.23
64644;BME280;51056;50.330;7.914;2023-01-08T10:26:01;99591.00;;;10.10;89.69
64644;BME280;51056;50.330;7.914;2023-01-08T10:29:25;99572.81;;;10.35;90.37
64644;BME280;51056;50.330;7.914;2023-01-08T10:32:55;99571.66;;;10.39;87.10
64644;BME280;51056;50.330;7.914;2023-01-08T10:36:02;99570.50;;;10.04;84.66
64644;BME280;51056;50.330;7.914;2023-01-08T10:39:23;99570.09;;;10.10;83.93
64644;BME280;51056;50.330;7.914;2023-01-08T10:42:33;99561.63;;;10.06;86.21
64644;BME280;51056;50.330;7.914;2023-01-08T10:45:42;99560.81;;;10.06;86.11
64644;BME280;51056;50.330;7.914;2023-01-08T10:48:57;99553.81;;;10.19;83.80
64644;BME280;51056;50.330;7.914;2023-01-08T10:52:02;99541.78;;;10.04;85.61
64644;BME280;51056;50.330;7.914;2023-01-08T10:58:23;99532.66;;;10.36;83.13
64644;BME280;51056;50.330;7.914;2023-01-08T11:01:28;99529.22;;;10.48;85.33
64644;BME280;51056;50.330;7.914;2023-01-08T11:04:34;99523.38;;;10.45;87.54
64644;BME280;51056;50.330;7.914;2023-01-08T11:07:38;99523.03;;;10.50;87.44
64644;BME280;51056;50.330;7.914;2023-01-08T11:10:43;99500.19;;;10.53;87.74
64644;BME280;51056;50.330;7.914;2023-01-08T11:14:00;99499.75;;;10.46;88.09
64644;BME280;51056;50.330;7.914;2023-01-08T11:17:09;99494.28;;;10.37;82.43
64644;BME280;51056;50.330;7.914;2023-01-08T11:20:28;99486.78;;;10.45;82.97
64644;BME280;51056;50.330;7.914;2023-01-08T11:23:33;99492.63;;;10.48;81.51
64644;BME280;51056;50.330;7.914;2023-01-08T11:26:39;99490.34;;;10.69;83.53
64644;BME280;51056;50.330;7.914;2023-01-08T11:30:10;99479.69;;;10.60;80.85
64644;BME280;51056;50.330;7.914;2023-01-08T11:33:20;99477.78;;;10.62;83.08
64644;BME280;51056;50.330;7.914;2023-01-08T11:36:35;99468.41;;;10.46;79.40
64644;BME280;51056;50.330;7.914;2023-01-08T11:39:41;99467.75;;;10.56;79.52
64644;BME280;51056;50.330;7.914;2023-01-08T11:43:09;99468.41;;;10.46;79.76
64644;BME280;51056;50.330;7.914;2023-01-08T11:46:52;99461.06;;;10.39;80.00
64644;BME280;51056;50.330;7.914;2023-01-08T11:50:23;99454.06;;;10.39;79.35
64644;BME280;51056;50.330;7.914;2023-01-08T11:53:37;99443.28;;;10.18;79.92
64644;BME280;51056;50.330;7.914;2023-01-08T11:56:57;99435.56;;;10.30;81.03
64644;BME280;51056;50.330;7.914;2023-01-08T12:06:36;99425.31;;;10.39;79.97
64644;BME280;51056;50.330;7.914;2023-01-08T12:10:26;99416.44;;;10.29;79.85
64644;BME280;51056;50.330;7.914;2023-01-08T12:17:11;99410.97;;;10.07;82.00
64644;BME280;51056;50.330;7.914;2023-01-08T12:27:23;99399.81;;;10.43;81.04
64644;BME280;51056;50.330;7.914;2023-01-08T12:34:00;99404.38;;;10.14;82.03
64644;BME280;51056;50.330;7.914;2023-01-08T12:37:17;99395.09;;;10.22;82.46
64644;BME280;51056;50.330;7.914;2023-01-08T12:40:35;99395.84;;;10.12;81.97
64644;BME280;51056;50.330;7.914;2023-01-08T12:43:51;99398.13;;;10.04;81.14
64644;BME280;51056;50.330;7.914;2023-01-08T12:46:59;99390.84;;;10.09;81.65
64644;BME280;51056;50.330;7.914;2023-01-08T12:57:11;99389.56;;;10.01;81.87
64644;BME280;51056;50.330;7.914;2023-01-08T13:03:27;99384.31;;;10.53;79.13
64644;BME280;51056;50.330;7.914;2023-01-08T13:06:32;99379.09;;;10.40;80.84
64644;BME280;51056;50.330;7.914;2023-01-08T13:09:41;99373.81;;;10.29;81.44
64644;BME280;51056;50.330;7.914;2023-01-08T13:12:49;99362.25;;;10.57;81.42
64644;BME280;51056;50.330;7.914;2023-01-08T13:16:13;99355.78;;;10.86;79.81
64644;BME280;51056;50.330;7.914;2023-01-08T13:19:53;99357.84;;;10.94;78.43
64644;BME280;51056;50.330;7.914;2023-01-08T13:23:01;99356.00;;;10.83;79.05
64644;BME280;51056;50.330;7.914;2023-01-08T13:26:09;99354.09;;;10.61;80.88
64644;BME280;51056;50.330;7.914;2023-01-08T13:29:35;99353.66;;;10.31;79.92
64644;BME280;51056;50.330;7.914;2023-01-08T13:32:43;99351.34;;;10.26;79.12
64644;BME280;51056;50.330;7.914;2023-01-08T13:42:22;99347.03;;;10.25;81.18
64644;BME280;51056;50.330;7.914;2023-01-08T13:45:30;99344.31;;;10.14;80.61
64644;BME280;51056;50.330;7.914;2023-01-08T13:49:04;99344.63;;;10.22;79.81
64644;BME280;51056;50.330;7.914;2023-01-08T13:52:35;99326.03;;;10.14;78.88
64644;BME280;51056;50.330;7.914;2023-01-08T13:55:53;99315.66;;;10.51;75.76
64644;BME280;51056;50.330;7.914;2023-01-08T13:59:01;99310.63;;;10.47;76.09
64644;BME280;51056;50.330;7.914;2023-01-08T14:02:30;99316.97;;;10.69;75.98
64644;BME280;51056;50.330;7.914;2023-01-08T14:05:35;99309.59;;;10.50;75.04
64644;BME280;51056;50.330;7.914;2023-01-08T14:08:59;99310.03;;;10.68;74.67
64644;BME280;51056;50.330;7.914;2023-01-08T14:12:03;99296.75;;;10.71;74.17
64644;BME280;51056;50.330;7.914;2023-01-08T14:15:08;99286.28;;;10.47;73.89
64644;BME280;51056;50.330;7.914;2023-01-08T14:18:13;99295.00;;;10.22;74.24
64644;BME280;51056;50.330;7.914;2023-01-08T14:21:21;99300.09;;;10.36;73.22
64644;BME280;51056;50.330;7.914;2023-01-08T14:24:25;99299.09;;;10.26;73.57
64644;BME280;51056;50.330;7.914;2023-01-08T14:27:30;99290.22;;;10.53;73.16
64644;BME280;51056;50.330;7.914;2023-01-08T14:30:34;99301.06;;;10.35;73.73
64644;BME280;51056;50.330;7.914;2023-01-08T14:33:46;99298.44;;;10.22;73.41
64644;BME280;51056;50.330;7.914;2023-01-08T14:36:52;99298.66;;;10.32;72.94
64644;BME280;51056;50.330;7.914;2023-01-08T14:39:56;99297.78;;;10.44;72.80
64644;BME280;51056;50.330;7.914;2023-01-08T14:43:06;99288.00;;;10.35;73.20
64644;BME280;51056;50.330;7.914;2023-01-08T14:46:19;99281.31;;;10.31;73.50
64644;BME280;51056;50.330;7.914;2023-01-08T14:49:29;99294.03;;;10.36;73.22
64644;BME280;51056;50.330;7.914;2023-01-08T14:52:39;99280.50;;;10.18;72.83
64644;BME280;51056;50.330;7.914;2023-01-08T14:55:47;99285.75;;;10.05;74.49
64644;BME280;51056;50.330;7.914;2023-01-08T14:58:52;99276.94;;;10.06;72.79
64644;BME280;51056;50.330;7.914;2023-01-08T15:02:00;99275.47;;;10.15;73.18
64644;BME280;51056;50.330;7.914;2023-01-08T15:05:30;99271.31;;;9.99;74.03
64644;BME280;51056;50.330;7.914;2023-01-08T15:08:35;99271.13;;;10.02;74.04
64644;BME280;51056;50.330;7.914;2023-01-08T15:12:00;99276.75;;;9.96;74.92
64644;BME280;51056;50.330;7.914;2023-01-08T15:15:09;99269.03;;;9.95;77.62
64644;BME280;51056;50.330;7.914;2023-01-08T15:18:12;99281.16;;;9.96;76.88
64644;BME280;51056;50.330;7.914;2023-01-08T15:21:20;99273.28;;;10.09;78.42
64644;BME280;51056;50.330;7.914;2023-01-08T15:27:31;99280.53;;;9.92;78.09
64644;BME280;51056;50.330;7.914;2023-01-08T15:30:43;99273.53;;;9.93;75.77
64644;BME280;51056;50.330;7.914;2023-01-08T15:33:48;99269.38;;;9.77;78.48
64644;BME280;51056;50.330;7.914;2023-01-08T15:36:51;99257.34;;;9.88;74.71
64644;BME280;51056;50.330;7.914;2023-01-08T15:39:55;99255.53;;;10.01;75.60
64644;BME280;51056;50.330;7.914;2023-01-08T15:42:59;99256.38;;;10.01;78.84
64644;BME280;51056;50.330;7.914;2023-01-08T15:46:11;99250.97;;;9.79;76.48
64644;BME280;51056;50.330;7.914;2023-01-08T15:49:15;99243.34;;;9.89;76.38
64644;BME280;51056;50.330;7.914;2023-01-08T15:52:24;99236.78;;;9.83;78.89
64644;BME280;51056;50.330;7.914;2023-01-08T15:55:32;99232.28;;;9.72;77.45
64644;BME280;51056;50.330;7.914;2023-01-08T15:58:46;99227.78;;;9.87;79.12
64644;BME280;51056;50.330;7.914;2023-01-08T16:01:53;99211.81;;;9.79;78.05
64644;BME280;51056;50.330;7.914;2023-01-08T16:04:56;99223.44;;;9.62;77.57
64644;BME280;51056;50.330;7.914;2023-01-08T16:08:00;99223.75;;;9.58;79.28
64644;BME280;51056;50.330;7.914;2023-01-08T16:11:03;99225.97;;;9.64;80.49
64644;BME280;51056;50.330;7.914;2023-01-08T16:14:09;99231.47;;;9.46;80.87
64644;BME280;51056;50.330;7.914;2023-01-08T16:17:13;99230.97;;;9.54;80.30
64644;BME280;51056;50.330;7.914;2023-01-08T16:20:16;99221.16;;;9.58;80.07
64644;BME280;51056;50.330;7.914;2023-01-08T16:23:19;99224.19;;;9.51;80.10
64644;BME280;51056;50.330;7.914;2023-01-08T16:26:23;99220.00;;;9.36;80.53
64644;BME280;51056;50.330;7.914;2023-01-08T16:29:27;99219.81;;;9.39;80.93
64644;BME280;51056;50.330;7.914;2023-01-08T16:32:31;99225.22;;;9.11;82.33
64644;BME280;51056;50.330;7.914;2023-01-08T16:35:34;99230.91;;;9.03;82.10
64644;BME280;51056;50.330;7.914;2023-01-08T16:38:39;99231.84;;;8.89;82.88
64644;BME280;51056;50.330;7.914;2023-01-08T16:41:42;99228.06;;;8.80;83.38
64644;BME280;51056;50.330;7.914;2023-01-08T16:44:46;99233.50;;;8.90;83.04
64644;BME280;51056;50.330;7.914;2023-01-08T16:47:49;99234.19;;;9.06;82.15
64644;BME280;51056;50.330;7.914;2023-01-08T16:50:53;99237.09;;;9.15;82.02
64644;BME280;51056;50.330;7.914;2023-01-08T16:53:57;99225.44;;;9.20;81.06
64644;BME280;51056;50.330;7.914;2023-01-08T16:57:00;99228.13;;;9.31;80.28
64644;BME280;51056;50.330;7.914;2023-01-08T17:00:04;99224.81;;;9.17;81.58
64644;BME280;51056;50.330;7.914;2023-01-08T17:03:08;99219.81;;;9.26;81.66
64644;BME280;51056;50.330;7.914;2023-01-08T17:06:11;99209.25;;;9.28;81.46
64644;BME280;51056;50.330;7.914;2023-01-08T17:09:15;99203.53;;;9.36;80.97
64644;BME280;51056;50.330;7.914;2023-01-08T17:12:21;99200.28;;;9.32;81.13
64644;BME280;51056;50.330;7.914;2023-01-08T17:15:24;99188.50;;;9.26;81.05
64644;BME280;51056;50.330;7.914;2023-01-08T17:18:28;99188.91;;;9.33;80.88
64644;BME280;51056;50.330;7.914;2023-01-08T17:21:37;99176.19;;;9.16;81.37
64644;BME280;51056;50.330;7.914;2023-01-08T17:24:41;99174.31;;;9.18;81.97
64644;BME280;51056;50.330;7.914;2023-01-08T17:27:44;99152.00;;;9.14;81.95
64644;BME280;51056;50.330;7.914;2023-01-08T17:30:53;99151.78;;;9.17;80.50
64644;BME280;51056;50.330;7.914;2023-01-08T17:34:03;99153.84;;;9.24;82.31
64644;BME280;51056;50.330;7.914;2023-01-08T17:37:07;99154.47;;;9.28;82.63
64644;BME280;51056;50.330;7.914;2023-01-08T17:40:11;99152.28;;;9.35;82.27
64644;BME280;51056;50.330;7.914;2023-01-08T17:43:15;99143.41;;;9.24;82.66
64644;BME280;51056;50.330;7.914;2023-01-08T17:46:19;99140.72;;;9.26;82.99
64644;BME280;51056;50.330;7.914;2023-01-08T17:49:22;99134.22;;;9.19;83.32
64644;BME280;51056;50.330;7.914;2023-01-08T17:52:25;99137.16;;;9.01;82.04
64644;BME280;51056;50.330;7.914;2023-01-08T17:55:29;99140.53;;;9.16;83.01
64644;BME280;51056;50.330;7.914;2023-01-08T17:58:32;99133.19;;;9.08;83.34
64644;BME280;51056;50.330;7.914;2023-01-08T18:01:36;99132.69;;;9.03;83.39
64644;BME280;51056;50.330;7.914;2023-01-08T18:04:40;99126.66;;;9.16;83.03
64644;BME280;51056;50.330;7.914;2023-01-08T18:07:43;99118.59;;;9.19;82.79
64644;BME280;51056;50.330;7.914;2023-01-08T18:10:47;99104.00;;;9.16;81.24
64644;BME280;51056;50.330;7.914;2023-01-08T18:13:58;99112.03;;;9.26;81.44
64644;BME280;51056;50.330;7.914;2023-01-08T18:17:02;99098.66;;;9.30;82.29
64644;BME280;51056;50.330;7.914;2023-01-08T18:20:08;99109.63;;;9.36;82.09
64644;BME280;51056;50.330;7.914;2023-01-08T18:23:12;99113.34;;;9.31;80.80
64644;BME280;51056;50.330;7.914;2023-01-08T18:26:18;99098.09;;;9.51;81.37
64644;BME280;51056;50.330;7.914;2023-01-08T18:29:22;99094.25;;;9.31;80.42
64644;BME280;51056;50.330;7.914;2023-01-08T18:32:25;99095.84;;;9.34;81.31
64644;BME280;51056;50.330;7.914;2023-01-08T18:35:29;99093.13;;;9.35;80.14
64644;BME280;51056;50.330;7.914;2023-01-08T18:38:32;99086.75;;;9.39;79.89
64644;BME280;51056;50.330;7.914;2023-01-08T18:41:38;99084.94;;;9.52;81.20
64644;BME280;51056;50.330;7.914;2023-01-08T18:45:03;99076.41;;;9.38;80.70
64644;BME280;51056;50.330;7.914;2023-01-08T18:48:08;99080.56;;;9.53;80.84
64644;BME280;51056;50.330;7.914;2023-01-08T18:51:13;99082.03;;;9.44;81.13
64644;BME280;51056;50.330;7.914;2023-01-08T18:54:19;99084.72;;;9.55;81.26
64644;BME280;51056;50.330;7.914;2023-01-08T18:57:23;99078.97;;;9.50;80.72
64644;BME280;51056;50.330;7.914;2023-01-08T19:00:29;99071.16;;;9.50;81.23
64644;BME280;51056;50.330;7.914;2023-01-08T19:03:35;99068.06;;;9.45;81.54
64644;BME280;51056;50.330;7.914;2023-01-08T19:06:38;99071.09;;;9.39;82.12
64644;BME280;51056;50.330;7.914;2023-01-08T19:09:42;99073.31;;;9.32;82.36
64644;BME280;51056;50.330;7.914;2023-01-08T19:12:46;99065.91;;;9.26;81.26
64644;BME280;51056;50.330;7.914;2023-01-08T19:15:49;99084.19;;;9.14;81.47
64644;BME280;51056;50.330;7.914;2023-01-08T19:18:55;99073.00;;;9.24;80.98
64644;BME280;51056;50.330;7.914;2023-01-08T19:21:58;99067.91;;;9.23;81.77
64644;BME280;51056;50.330;7.914;2023-01-08T19:25:02;99062.47;;;9.26;81.34
64644;BME280;51056;50.330;7.914;2023-01-08T19:28:05;99056.84;;;9.32;81.05
64644;BME280;51056;50.330;7.914;2023-01-08T19:31:15;99050.44;;;9.36;80.44
64644;BME280;51056;50.330;7.914;2023-01-08T19:34:18;99041.19;;;9.32;80.59
64644;BME280;51056;50.330;7.914;2023-01-08T19:37:21;99044.63;;;9.32;81.29
64644;BME280;51056;50.330;7.914;2023-01-08T19:40:26;99036.44;;;9.37;81.08
64644;BME280;51056;50.330;7.914;2023-01-08T19:43:29;99011.44;;;9.22;79.65
64644;BME280;51056;50.330;7.914;2023-01-08T19:46:45;99018.84;;;9.28;82.67
64644;BME280;51056;50.330;7.914;2023-01-08T19:49:51;99010.41;;;9.24;81.51
64644;BME280;51056;50.330;7.914;2023-01-08T19:52:58;98999.94;;;9.37;82.20
64644;BME280;51056;50.330;7.914;2023-01-08T19:56:08;98985.44;;;9.33;82.23
64644;BME280;51056;50.330;7.914;2023-01-08T19:59:11;98973.59;;;9.29;81.21
64644;BME280;51056;50.330;7.914;2023-01-08T20:02:15;98985.22;;;9.36;81.23
64644;BME280;51056;50.330;7.914;2023-01-08T20:05:21;98977.50;;;9.35;81.71
64644;BME280;51056;50.330;7.914;2023-01-08T20:08:28;98968.38;;;9.29;80.25
64644;BME280;51056;50.330;7.914;2023-01-08T20:11:31;98968.28;;;9.18;80.23
64644;BME280;51056;50.330;7.914;2023-01-08T20:14:35;98961.75;;;9.36;79.48
64644;BME280;51056;50.330;7.914;2023-01-08T20:17:39;98957.66;;;9.45;80.75
64644;BME280;51056;50.330;7.914;2023-01-08T20:20:45;98966.31;;;9.45;81.24